createdAt,value
2022-08-19T00:01:53.396Z,21.64
2022-08-19T00:04:25.422Z,21.65
2022-08-19T00:06:53.457Z,21.63
2022-08-19T00:09:23.158Z,21.62
2022-08-19T00:11:52.186Z,21.61
2022-08-19T00:14:21.673Z,21.57
2022-08-19T00:16:50.115Z,21.52
2022-08-19T00:19:18.007Z,21.48
2022-08-19T00:21:45.588Z,21.45
2022-08-19T00:24:15.785Z,21.44
2022-08-19T00:26:44.561Z,21.45
2022-08-19T00:29:13.791Z,21.44
2022-08-19T00:31:43.697Z,21.42
2022-08-19T00:34:13.038Z,21.41
2022-08-19T00:36:44.356Z,21.37
2022-08-19T00:39:12.672Z,21.32
2022-08-19T00:41:41.392Z,21.27
2022-08-19T00:44:11.128Z,21.23
2022-08-19T00:46:42.135Z,21.21
2022-08-19T00:49:21.244Z,21.21
2022-08-19T00:51:52.657Z,21.22
2022-08-19T00:54:31.130Z,21.23
2022-08-19T00:57:00.664Z,21.25
2022-08-19T00:59:56.390Z,21.27
2022-08-19T01:02:18.256Z,21.27
2022-08-19T01:04:46.096Z,21.25
2022-08-19T01:07:15.216Z,21.25
2022-08-19T01:09:47.903Z,21.25
2022-08-19T01:12:17.777Z,21.25
2022-08-19T01:14:46.396Z,21.26
2022-08-19T01:17:15.969Z,21.27
2022-08-19T01:19:47.290Z,21.28
2022-08-19T01:22:33.707Z,21.29
2022-08-19T01:25:02.409Z,21.29
2022-08-19T01:27:44.099Z,21.29
2022-08-19T01:30:17.611Z,21.27
2022-08-19T01:32:45.467Z,21.24
2022-08-19T01:35:18.995Z,21.23
2022-08-19T01:37:51.973Z,21.22
2022-08-19T01:40:21.698Z,21.22
2022-08-19T01:42:50.868Z,21.24
2022-08-19T01:45:19.877Z,21.25
2022-08-19T01:47:55.560Z,21.26
2022-08-19T01:50:31.874Z,21.26
2022-08-19T01:53:06.210Z,21.27
2022-08-19T01:55:40.517Z,21.26
2022-08-19T01:58:21.826Z,21.25
2022-08-19T02:00:49.662Z,21.21
2022-08-19T02:03:17.732Z,21.20
2022-08-19T02:05:46.666Z,21.18
2022-08-19T02:08:14.329Z,21.18
2022-08-19T02:10:44.434Z,21.18
2022-08-19T02:13:14.347Z,21.21
2022-08-19T02:15:42.617Z,21.23
2022-08-19T02:18:11.596Z,21.24
2022-08-19T02:20:41.524Z,21.24
2022-08-19T02:23:13.717Z,21.22
2022-08-19T02:25:46.671Z,21.19
2022-08-19T02:28:18.585Z,21.17
2022-08-19T02:30:48.783Z,21.14
2022-08-19T02:33:17.654Z,21.12
2022-08-19T02:35:47.594Z,21.09
2022-08-19T02:38:32.132Z,21.07
2022-08-19T02:41:04.084Z,21.05
2022-08-19T02:43:34.755Z,21.03
2022-08-19T02:46:12.637Z,21.00
2022-08-19T02:48:40.629Z,20.94
2022-08-19T02:51:08.251Z,20.90
2022-08-19T02:53:35.880Z,20.86
2022-08-19T02:56:07.824Z,20.83
2022-08-19T02:58:35.548Z,20.81
2022-08-19T03:01:03.353Z,20.79
2022-08-19T03:03:31.139Z,20.80
2022-08-19T03:06:15.932Z,20.80
2022-08-19T03:08:47.408Z,20.80
2022-08-19T03:11:21.705Z,20.78
2022-08-19T03:13:51.692Z,20.75
2022-08-19T03:16:20.642Z,20.70
2022-08-19T03:18:49.113Z,20.65
2022-08-19T03:21:26.925Z,20.63
2022-08-19T03:23:55.502Z,20.61
2022-08-19T03:26:23.203Z,20.61
2022-08-19T03:28:57.996Z,20.61
2022-08-19T03:31:43.488Z,20.63
2022-08-19T03:34:18.611Z,20.65
2022-08-19T03:36:47.642Z,20.67
2022-08-19T03:39:15.897Z,20.71
2022-08-19T03:41:48.130Z,20.75
2022-08-19T03:44:21.740Z,20.78
2022-08-19T03:46:53.236Z,20.80
2022-08-19T03:49:27.107Z,20.81
2022-08-19T03:51:58.049Z,20.82
2022-08-19T03:54:27.100Z,20.85
2022-08-19T03:56:57.224Z,20.86
2022-08-19T03:59:31.504Z,20.91
2022-08-19T04:02:04.087Z,20.96
2022-08-19T04:04:32.075Z,20.99
2022-08-19T04:06:59.747Z,21.03
2022-08-19T04:09:27.880Z,21.06
2022-08-19T04:11:57.678Z,21.08
2022-08-19T04:14:31.018Z,21.08
2022-08-19T04:17:00.093Z,21.08
2022-08-19T04:19:30.493Z,21.08
2022-08-19T04:21:59.198Z,21.09
2022-08-19T04:24:27.259Z,21.11
2022-08-19T04:26:55.111Z,21.16
2022-08-19T04:29:26.467Z,21.21
2022-08-19T04:31:56.429Z,21.26
2022-08-19T04:34:26.426Z,21.31
2022-08-19T04:36:57.086Z,21.37
2022-08-19T04:39:48.665Z,21.43
2022-08-19T04:42:34.887Z,21.51
2022-08-19T04:45:05.391Z,21.60
2022-08-19T04:47:47.591Z,21.66
2022-08-19T04:50:28.954Z,21.73
2022-08-19T04:52:56.871Z,21.79
2022-08-19T04:55:26.592Z,21.85
2022-08-19T04:57:55.048Z,21.89
2022-08-19T05:00:23.239Z,21.93
2022-08-19T05:02:51.011Z,21.97
2022-08-19T05:05:20.609Z,22.01
2022-08-19T05:07:52.424Z,22.05
2022-08-19T05:10:20.343Z,22.09
2022-08-19T05:12:47.996Z,22.16
2022-08-19T05:15:15.779Z,22.22
2022-08-19T05:18:03.447Z,22.27
2022-08-19T05:20:47.029Z,22.32
2022-08-19T05:23:20.486Z,22.36
2022-08-19T05:25:51.487Z,22.40
2022-08-19T05:28:21.264Z,22.44
2022-08-19T05:30:51.428Z,22.50
2022-08-19T05:33:19.442Z,22.54
2022-08-19T05:35:47.062Z,22.58
2022-08-19T05:38:14.882Z,22.64
2022-08-19T05:40:47.489Z,22.70
2022-08-19T05:43:18.375Z,22.77
2022-08-19T05:45:46.493Z,22.84
2022-08-19T05:48:15.123Z,22.92
2022-08-19T05:50:43.109Z,23.00
2022-08-19T05:53:10.873Z,23.08
2022-08-19T05:55:39.523Z,23.15
2022-08-19T05:58:10.374Z,23.22
2022-08-19T06:00:38.507Z,23.29
2022-08-19T06:03:11.873Z,23.36
2022-08-19T06:05:46.808Z,23.42
2022-08-19T06:08:21.035Z,23.50
2022-08-19T06:11:45.894Z,23.57
2022-08-19T06:14:19.471Z,23.66
2022-08-19T06:16:55.764Z,23.76
2022-08-19T06:19:25.242Z,23.86
2022-08-19T06:21:54.060Z,23.95
2022-08-19T06:24:24.785Z,24.03
2022-08-19T06:26:57.961Z,24.12
2022-08-19T06:29:30.228Z,24.23
2022-08-19T06:32:01.046Z,24.33
2022-08-19T06:34:31.680Z,24.43
2022-08-19T06:37:04.179Z,24.54
2022-08-19T06:39:39.287Z,24.65
2022-08-19T06:42:09.730Z,24.75
2022-08-19T06:44:42.638Z,24.86
2022-08-19T06:47:25.024Z,24.96
2022-08-19T06:50:03.168Z,25.07
2022-08-19T06:52:34.860Z,25.17
2022-08-19T06:55:06.145Z,25.27
2022-08-19T06:57:35.185Z,25.35
2022-08-19T07:00:07.143Z,25.43
2022-08-19T07:02:38.356Z,25.48
2022-08-19T07:05:06.852Z,25.54
2022-08-19T07:07:35.545Z,25.61
2022-08-19T07:10:07.711Z,25.66
2022-08-19T07:12:36.121Z,25.71
2022-08-19T07:15:07.243Z,25.74
2022-08-19T07:17:38.181Z,25.79
2022-08-19T07:20:09.388Z,25.87
2022-08-19T07:22:38.921Z,25.92
2022-08-19T07:25:09.242Z,25.98
2022-08-19T07:27:38.169Z,26.04
2022-08-19T07:30:11.675Z,26.11
2022-08-19T07:32:40.958Z,26.21
2022-08-19T07:35:10.457Z,26.35
2022-08-19T07:37:39.130Z,26.48
2022-08-19T07:40:08.658Z,26.58
2022-08-19T07:42:36.678Z,26.67
2022-08-19T07:45:06.517Z,26.79
2022-08-19T07:47:58.577Z,26.89
2022-08-19T07:50:22.597Z,26.98
2022-08-19T07:52:51.092Z,27.06
2022-08-19T07:55:43.257Z,27.13
2022-08-19T07:58:13.501Z,27.22
2022-08-19T08:00:42.600Z,27.29
2022-08-19T08:03:11.703Z,27.35
2022-08-19T08:05:58.838Z,27.42
2022-08-19T08:08:48.280Z,27.48
2022-08-19T08:11:20.995Z,27.55
2022-08-19T08:14:00.723Z,27.60
2022-08-19T08:16:39.679Z,27.66
2022-08-19T08:19:20.408Z,27.75
2022-08-19T08:21:56.561Z,27.80
2022-08-19T08:24:28.596Z,27.84
2022-08-19T08:26:57.825Z,27.90
2022-08-19T08:29:35.080Z,27.97
2022-08-19T08:32:04.427Z,28.03
2022-08-19T08:34:43.027Z,28.02
2022-08-19T08:37:10.723Z,28.01
2022-08-19T08:39:38.940Z,27.99
2022-08-19T08:42:18.319Z,28.02
2022-08-19T08:44:59.312Z,28.05
2022-08-19T08:47:33.599Z,28.09
2022-08-19T08:50:26.291Z,28.10
2022-08-19T08:52:59.067Z,28.15
2022-08-19T08:55:36.791Z,28.23
2022-08-19T08:58:14.740Z,28.31
2022-08-19T09:00:47.512Z,28.39
2022-08-19T09:03:25.542Z,28.38
2022-08-19T09:05:56.093Z,28.41
2022-08-19T09:08:29.096Z,28.46
2022-08-19T09:10:58.336Z,28.47
2022-08-19T09:13:37.279Z,28.49
2022-08-19T09:16:13.938Z,28.46
2022-08-19T09:18:48.080Z,28.43
2022-08-19T09:21:16.608Z,28.43
2022-08-19T09:23:45.288Z,28.46
2022-08-19T09:26:24.277Z,28.52
2022-08-19T09:29:06.051Z,28.65
2022-08-19T09:31:34.364Z,28.76
2022-08-19T09:34:06.012Z,28.82
2022-08-19T09:36:36.917Z,28.82
2022-08-19T09:39:16.005Z,28.82
2022-08-19T09:41:47.369Z,28.79
2022-08-19T09:44:15.561Z,28.85
2022-08-19T09:46:44.270Z,28.96
2022-08-19T09:49:11.999Z,29.04
2022-08-19T09:51:41.339Z,29.15
2022-08-19T09:54:11.262Z,29.25
2022-08-19T09:56:39.375Z,29.35
2022-08-19T09:59:11.182Z,29.43
2022-08-19T10:01:39.601Z,29.50
2022-08-19T10:04:20.182Z,29.59
2022-08-19T10:06:53.656Z,29.73
2022-08-19T10:09:34.016Z,29.82
2022-08-19T10:12:06.120Z,29.90
2022-08-19T10:14:35.469Z,29.99
2022-08-19T10:17:17.555Z,30.09
2022-08-19T10:19:55.171Z,30.17
2022-08-19T10:22:25.466Z,30.22
2022-08-19T10:24:54.482Z,30.27
2022-08-19T10:27:22.917Z,30.36
2022-08-19T10:29:50.812Z,30.43
2022-08-19T10:32:18.475Z,30.50
2022-08-19T10:34:59.654Z,30.61
2022-08-19T10:37:31.387Z,30.70
2022-08-19T10:40:00.510Z,30.73
2022-08-19T10:42:28.342Z,30.77
2022-08-19T10:44:56.115Z,30.87
2022-08-19T10:47:26.344Z,30.95
2022-08-19T10:50:15.783Z,31.05
2022-08-19T10:52:50.201Z,31.11
2022-08-19T10:55:39.671Z,31.16
2022-08-19T10:58:13.170Z,31.27
2022-08-19T11:00:43.821Z,31.37
2022-08-19T11:03:11.871Z,31.43
2022-08-19T11:05:40.467Z,31.46
2022-08-19T11:08:23.024Z,31.52
2022-08-19T11:10:56.238Z,31.54
2022-08-19T11:13:24.321Z,31.55
2022-08-19T11:16:05.117Z,31.63
2022-08-19T11:18:37.057Z,31.71
2022-08-19T11:21:25.412Z,31.78
2022-08-19T11:23:57.156Z,31.88
2022-08-19T11:26:26.362Z,31.96
2022-08-19T11:28:57.115Z,32.00
2022-08-19T11:31:29.228Z,32.05
2022-08-19T11:34:03.389Z,32.17
2022-08-19T11:36:33.298Z,32.28
2022-08-19T11:39:02.391Z,32.36
2022-08-19T11:41:30.033Z,32.41
2022-08-19T11:43:57.819Z,32.50
2022-08-19T11:46:30.294Z,32.59
2022-08-19T11:49:00.146Z,32.59
2022-08-19T11:51:29.202Z,32.69
2022-08-19T11:53:58.898Z,32.81
2022-08-19T11:56:28.418Z,32.97
2022-08-19T11:58:59.993Z,33.17
2022-08-19T12:01:28.450Z,33.31
2022-08-19T12:03:57.477Z,33.42
2022-08-19T12:06:32.590Z,33.45
2022-08-19T12:09:05.297Z,33.45
2022-08-19T12:11:34.482Z,33.40
2022-08-19T12:14:02.622Z,33.41
2022-08-19T12:16:32.663Z,33.41
2022-08-19T12:19:04.734Z,33.36
2022-08-19T12:21:36.003Z,33.25
2022-08-19T12:24:06.731Z,33.16
2022-08-19T12:26:39.005Z,33.22
2022-08-19T12:29:23.858Z,33.37
2022-08-19T12:31:52.646Z,33.53
2022-08-19T12:34:21.191Z,33.76
2022-08-19T12:36:50.736Z,34.05
2022-08-19T12:39:18.786Z,34.20
2022-08-19T12:41:54.068Z,34.22
2022-08-19T12:44:29.021Z,34.18
2022-08-19T12:46:57.958Z,34.07
2022-08-19T12:49:51.913Z,34.52
2022-08-19T12:52:16.850Z,35.32
2022-08-19T12:54:54.423Z,35.64
2022-08-19T12:57:32.882Z,35.71
2022-08-19T13:00:06.330Z,35.97
2022-08-19T13:02:38.535Z,36.36
2022-08-19T13:05:09.527Z,36.51
2022-08-19T13:07:39.659Z,36.73
2022-08-19T13:10:10.178Z,37.04
2022-08-19T13:12:37.907Z,37.42
2022-08-19T13:15:10.753Z,37.97
2022-08-19T13:17:40.788Z,38.84
2022-08-19T13:20:10.415Z,39.14
2022-08-19T13:22:38.657Z,39.30
2022-08-19T13:25:07.837Z,39.35
2022-08-19T13:27:39.214Z,39.29
2022-08-19T13:30:26.122Z,39.67
2022-08-19T13:33:09.987Z,40.55
2022-08-19T13:35:41.773Z,41.44
2022-08-19T13:38:12.125Z,42.00
2022-08-19T13:40:41.340Z,42.38
2022-08-19T13:43:17.847Z,42.58
2022-08-19T13:45:56.638Z,42.71
2022-08-19T13:48:27.145Z,42.82
2022-08-19T13:50:55.566Z,42.85
2022-08-19T13:53:24.050Z,42.91
2022-08-19T13:55:52.027Z,43.34
2022-08-19T13:58:19.620Z,43.82
2022-08-19T14:00:47.942Z,44.22
2022-08-19T14:03:16.045Z,44.60
2022-08-19T14:05:43.657Z,44.96
2022-08-19T14:08:14.956Z,45.25
2022-08-19T14:10:45.397Z,45.14
2022-08-19T14:13:20.756Z,44.64
2022-08-19T14:15:48.953Z,43.89
2022-08-19T14:18:19.006Z,43.49
2022-08-19T14:20:46.726Z,43.23
2022-08-19T14:23:14.508Z,42.79
2022-08-19T14:25:42.339Z,42.52
2022-08-19T14:28:10.448Z,42.26
2022-08-19T14:30:39.048Z,41.89
2022-08-19T14:33:08.174Z,41.56
2022-08-19T14:35:36.639Z,41.34
2022-08-19T14:38:05.837Z,41.33
2022-08-19T14:40:35.545Z,41.35
2022-08-19T14:43:05.393Z,41.48
2022-08-19T14:45:36.768Z,41.85
2022-08-19T14:48:05.620Z,42.23
2022-08-19T14:50:34.799Z,42.58
2022-08-19T14:53:09.345Z,42.99
2022-08-19T14:55:45.304Z,43.32
2022-08-19T14:58:29.230Z,43.33
2022-08-19T15:01:00.498Z,43.24
2022-08-19T15:03:29.843Z,43.19
2022-08-19T15:05:58.304Z,43.23
2022-08-19T15:08:27.580Z,43.52
2022-08-19T15:10:56.364Z,43.64
2022-08-19T15:13:26.066Z,43.68
2022-08-19T15:15:54.023Z,43.69
2022-08-19T15:18:22.634Z,43.74
2022-08-19T15:20:50.586Z,43.58
2022-08-19T15:23:20.562Z,42.95
2022-08-19T15:25:48.978Z,42.22
2022-08-19T15:28:17.164Z,42.24
2022-08-19T15:30:44.798Z,42.18
2022-08-19T15:33:16.339Z,42.03
2022-08-19T15:35:44.955Z,41.91
2022-08-19T15:38:16.021Z,41.58
2022-08-19T15:40:44.389Z,41.26
2022-08-19T15:43:12.111Z,40.67
2022-08-19T15:45:40.132Z,40.01
2022-08-19T15:48:08.097Z,39.82
2022-08-19T15:50:35.787Z,39.95
2022-08-19T15:53:07.262Z,39.96
2022-08-19T15:55:41.940Z,39.72
2022-08-19T15:58:28.920Z,39.19
2022-08-19T16:01:15.120Z,38.80
2022-08-19T16:03:59.730Z,38.34
2022-08-19T16:06:29.610Z,37.65
2022-08-19T16:09:04.481Z,37.12
2022-08-19T16:11:39.289Z,37.06
2022-08-19T16:14:09.364Z,37.11
2022-08-19T16:16:38.352Z,37.15
2022-08-19T16:19:10.196Z,37.18
2022-08-19T16:21:41.990Z,37.29
2022-08-19T16:24:13.153Z,37.23
2022-08-19T16:26:42.485Z,37.07
2022-08-19T16:29:12.956Z,36.97
2022-08-19T16:31:43.692Z,36.79
2022-08-19T16:34:13.171Z,36.61
2022-08-19T16:36:42.109Z,36.39
2022-08-19T16:39:15.554Z,36.06
2022-08-19T16:41:45.637Z,35.68
2022-08-19T16:44:15.403Z,35.34
2022-08-19T16:46:43.056Z,34.98
2022-08-19T16:49:11.288Z,34.56
2022-08-19T16:51:39.624Z,34.20
2022-08-19T16:54:07.683Z,33.85
2022-08-19T16:56:35.781Z,33.58
2022-08-19T16:59:03.705Z,33.29
2022-08-19T17:01:31.533Z,32.99
2022-08-19T17:03:59.299Z,32.76
2022-08-19T17:06:30.784Z,32.59
2022-08-19T17:09:01.399Z,32.45
2022-08-19T17:11:32.767Z,32.25
2022-08-19T17:14:02.453Z,32.00
2022-08-19T17:16:32.579Z,31.78
2022-08-19T17:19:02.454Z,31.60
2022-08-19T17:21:37.570Z,31.43
2022-08-19T17:24:08.481Z,31.25
2022-08-19T17:26:39.132Z,31.08
2022-08-19T17:29:06.807Z,30.92
2022-08-19T17:31:34.749Z,30.75
2022-08-19T17:34:03.643Z,30.60
2022-08-19T17:36:33.860Z,30.44
2022-08-19T17:39:03.917Z,30.30
2022-08-19T17:41:34.138Z,30.16
2022-08-19T17:44:03.679Z,30.04
2022-08-19T17:46:32.145Z,29.93
2022-08-19T17:49:00.097Z,29.84
2022-08-19T17:51:33.653Z,29.73
2022-08-19T17:54:02.115Z,29.62
2022-08-19T17:56:30.017Z,29.54
2022-08-19T17:59:00.635Z,29.45
2022-08-19T18:01:35.497Z,29.34
2022-08-19T18:04:19.349Z,29.20
2022-08-19T18:06:53.331Z,29.08
2022-08-19T18:09:27.129Z,28.99
2022-08-19T18:11:57.443Z,28.89
2022-08-19T18:14:34.103Z,28.80
2022-08-19T18:17:09.023Z,28.71
2022-08-19T18:19:43.756Z,28.62
2022-08-19T18:22:27.617Z,28.54
2022-08-19T18:24:57.143Z,28.45
2022-08-19T18:27:26.983Z,28.34
2022-08-19T18:29:59.458Z,28.25
2022-08-19T18:32:34.485Z,28.17
2022-08-19T18:35:11.982Z,28.06
2022-08-19T18:37:44.639Z,27.97
2022-08-19T18:40:33.427Z,27.90
2022-08-19T18:43:17.037Z,27.84
2022-08-19T18:46:01.192Z,27.77
2022-08-19T18:48:45.038Z,27.72
2022-08-19T18:51:14.448Z,27.68
2022-08-19T18:53:44.839Z,27.64
2022-08-19T18:56:15.904Z,27.60
2022-08-19T18:58:44.200Z,27.56
2022-08-19T19:01:17.138Z,27.53
2022-08-19T19:03:46.604Z,27.50
2022-08-19T19:06:19.147Z,27.46
2022-08-19T19:08:48.212Z,27.44
2022-08-19T19:11:33.794Z,27.41
2022-08-19T19:14:03.431Z,27.38
2022-08-19T19:16:32.243Z,27.36
2022-08-19T19:18:59.910Z,27.34
2022-08-19T19:21:31.858Z,27.32
2022-08-19T19:24:02.406Z,27.30
2022-08-19T19:26:30.478Z,27.28
2022-08-19T19:28:59.649Z,27.26
2022-08-19T19:31:27.309Z,27.22
2022-08-19T19:33:56.312Z,27.19
2022-08-19T19:36:24.002Z,27.16
2022-08-19T19:38:52.682Z,27.12
2022-08-19T19:41:25.781Z,27.07
2022-08-19T19:44:23.096Z,27.02
2022-08-19T19:46:43.518Z,26.96
2022-08-19T19:49:12.121Z,26.91
2022-08-19T19:51:41.155Z,26.86
2022-08-19T19:54:13.889Z,26.81
2022-08-19T19:56:48.091Z,26.77
2022-08-19T19:59:17.101Z,26.71
2022-08-19T20:01:46.970Z,26.66
2022-08-19T20:04:16.528Z,26.62
2022-08-19T20:06:46.335Z,26.57
2022-08-19T20:09:19.633Z,26.53
2022-08-19T20:11:53.792Z,26.48
2022-08-19T20:14:32.002Z,26.43
2022-08-19T20:17:00.324Z,26.39
2022-08-19T20:19:33.932Z,26.35
2022-08-19T20:22:01.422Z,26.30
2022-08-19T20:24:33.470Z,26.26
2022-08-19T20:27:02.527Z,26.22
2022-08-19T20:29:39.314Z,26.19
2022-08-19T20:32:10.600Z,26.14
2022-08-19T20:34:40.463Z,26.10
2022-08-19T20:37:09.482Z,26.06
2022-08-19T20:39:38.041Z,26.02
2022-08-19T20:42:06.008Z,26.01
2022-08-19T20:44:33.644Z,25.99
2022-08-19T20:47:04.052Z,25.97
2022-08-19T20:49:32.359Z,25.96
2022-08-19T20:52:00.293Z,25.94
2022-08-19T20:54:28.476Z,25.92
2022-08-19T20:56:56.792Z,25.91
2022-08-19T20:59:26.135Z,25.90
2022-08-19T21:01:53.896Z,25.89
2022-08-19T21:04:22.321Z,25.87
2022-08-19T21:06:50.963Z,25.85
2022-08-19T21:09:18.623Z,25.82
2022-08-19T21:11:46.262Z,25.81
2022-08-19T21:14:13.915Z,25.79
2022-08-19T21:16:41.554Z,25.76
2022-08-19T21:19:09.157Z,25.74
2022-08-19T21:21:36.772Z,25.71
2022-08-19T21:24:04.563Z,25.69
2022-08-19T21:26:32.201Z,25.65
2022-08-19T21:28:59.894Z,25.61
2022-08-19T21:31:27.549Z,25.56
2022-08-19T21:33:55.672Z,25.49
2022-08-19T21:36:23.306Z,25.43
2022-08-19T21:38:51.104Z,25.37
2022-08-19T21:41:18.774Z,25.31
2022-08-19T21:43:46.393Z,25.24
2022-08-19T21:46:14.320Z,25.17
2022-08-19T21:48:41.920Z,25.11
2022-08-19T21:51:09.720Z,25.05
2022-08-19T21:53:37.376Z,24.99
2022-08-19T21:56:06.605Z,24.93
2022-08-19T21:58:36.411Z,24.89
2022-08-19T22:01:07.575Z,24.88
2022-08-19T22:03:37.694Z,24.86
2022-08-19T22:06:06.365Z,24.85
2022-08-19T22:08:34.008Z,24.84
2022-08-19T22:11:03.253Z,24.77
2022-08-19T22:13:39.770Z,24.68
2022-08-19T22:16:09.568Z,24.53
2022-08-19T22:18:37.505Z,24.35
2022-08-19T22:21:11.415Z,24.18
2022-08-19T22:23:42.150Z,24.00
2022-08-19T22:26:11.408Z,23.88
2022-08-19T22:28:39.694Z,23.76
2022-08-19T22:31:10.406Z,23.64
2022-08-19T22:33:38.301Z,23.54
2022-08-19T22:36:07.597Z,23.43
2022-08-19T22:38:37.297Z,23.34
2022-08-19T22:41:07.793Z,23.26
2022-08-19T22:43:37.344Z,23.18
2022-08-19T22:46:06.350Z,23.11
2022-08-19T22:48:46.983Z,23.04
2022-08-19T22:51:31.450Z,22.98
2022-08-19T22:53:59.062Z,22.92
2022-08-19T22:56:26.805Z,22.87
2022-08-19T22:58:55.154Z,22.82
2022-08-19T23:01:30.405Z,22.75
2022-08-19T23:03:59.731Z,22.67
2022-08-19T23:06:33.752Z,22.59
2022-08-19T23:09:06.551Z,22.50
2022-08-19T23:11:38.160Z,22.42
2022-08-19T23:14:12.390Z,22.32
2022-08-19T23:16:41.519Z,22.24
2022-08-19T23:19:10.156Z,22.17
2022-08-19T23:21:39.861Z,22.14
2022-08-19T23:24:08.751Z,22.09
2022-08-19T23:26:36.814Z,22.06
2022-08-19T23:29:21.795Z,22.03
2022-08-19T23:31:50.082Z,21.98
2022-08-19T23:34:17.941Z,21.95
2022-08-19T23:36:46.224Z,21.92
2022-08-19T23:39:13.814Z,21.86
2022-08-19T23:41:41.432Z,21.80
2022-08-19T23:44:14.441Z,21.75
2022-08-19T23:46:55.378Z,21.74
2022-08-19T23:49:24.921Z,21.73
2022-08-19T23:51:54.220Z,21.72
2022-08-19T23:54:34.319Z,21.74
2022-08-19T23:57:13.852Z,21.76
2022-08-19T23:59:45.203Z,21.78
